createdAt,value
2023-04-15T00:00:52.183Z,9.457307
2023-04-15T00:01:52.235Z,9.457313
2023-04-15T00:02:52.250Z,9.457261
2023-04-15T00:03:52.261Z,9.457246
2023-04-15T00:04:52.201Z,9.457475
2023-04-15T00:05:52.111Z,9.457420
2023-04-15T00:06:52.134Z,9.457376
2023-04-15T00:07:52.094Z,9.457249
2023-04-15T00:08:52.104Z,9.457334
2023-04-15T00:09:52.088Z,9.457284
2023-04-15T00:11:23.991Z,9.457247
2023-04-15T00:11:52.082Z,9.457265
2023-04-15T00:12:52.047Z,9.457301
2023-04-15T00:13:52.057Z,9.457315
2023-04-15T00:14:52.032Z,9.457319
2023-04-15T00:15:52.023Z,9.457267
2023-04-15T00:16:52.045Z,9.457259
2023-04-15T00:17:52.035Z,9.457265
2023-04-15T00:18:51.993Z,9.457319
2023-04-15T00:19:51.991Z,9.457267
2023-04-15T00:20:51.983Z,9.457296
2023-04-15T00:21:52.024Z,9.457301
2023-04-15T00:22:51.950Z,9.457356
2023-04-15T00:23:51.947Z,9.457427
2023-04-15T00:24:51.930Z,9.457384
2023-04-15T00:25:51.931Z,9.457340
2023-04-15T00:26:51.923Z,9.457403
2023-04-15T00:27:52.903Z,9.457318
2023-04-15T00:28:51.904Z,9.457296
2023-04-15T00:29:51.882Z,9.457265
2023-04-15T00:30:51.926Z,9.457295
2023-04-15T00:31:51.893Z,9.457329
2023-04-15T00:32:51.865Z,9.457331
2023-04-15T00:33:51.854Z,9.457247
2023-04-15T00:34:51.833Z,9.457134
2023-04-15T00:35:51.836Z,9.457273
2023-04-15T00:36:51.852Z,9.457463
2023-04-15T00:37:51.791Z,9.457399
2023-04-15T00:38:51.796Z,9.457286
2023-04-15T00:39:51.775Z,9.457352
2023-04-15T00:40:51.773Z,9.457299
2023-04-15T00:41:51.773Z,9.457408
2023-04-15T00:42:51.798Z,9.457404
2023-04-15T00:43:51.738Z,9.457426
2023-04-15T00:44:52.744Z,9.457355
2023-04-15T00:45:51.839Z,9.457422
2023-04-15T00:46:51.755Z,9.457321
2023-04-15T00:47:51.902Z,9.457304
2023-04-15T00:48:51.694Z,9.457348
2023-04-15T00:49:51.680Z,9.457408
2023-04-15T00:50:51.673Z,9.457301
2023-04-15T00:51:51.690Z,9.457376
2023-04-15T00:52:51.649Z,9.457267
2023-04-15T00:53:51.642Z,9.457260
2023-04-15T00:54:51.667Z,9.457279
2023-04-15T00:55:51.610Z,9.457268
2023-04-15T00:56:52.630Z,9.457309
2023-04-15T00:57:51.613Z,9.457251
2023-04-15T00:58:51.581Z,9.457295
2023-04-15T00:59:51.606Z,9.457306
2023-04-15T01:00:51.591Z,9.457336
2023-04-15T01:01:51.659Z,9.457340
2023-04-15T01:02:51.614Z,9.457323
2023-04-15T01:03:51.633Z,9.457317
2023-04-15T01:04:51.587Z,9.457348
2023-04-15T01:05:51.523Z,9.457268
2023-04-15T01:06:51.568Z,9.457271
2023-04-15T01:07:51.504Z,9.457287
2023-04-15T01:08:51.497Z,9.457179
2023-04-15T01:09:51.488Z,9.457268
2023-04-15T01:10:51.466Z,9.457263
2023-04-15T01:11:51.479Z,9.457344
2023-04-15T01:12:51.447Z,9.457399
2023-04-15T01:13:51.434Z,9.457297
2023-04-15T01:14:51.426Z,9.457338
2023-04-15T01:15:51.426Z,9.457314
2023-04-15T01:16:51.422Z,9.457272
2023-04-15T01:17:51.448Z,9.457141
2023-04-15T01:18:51.381Z,9.457161
2023-04-15T01:19:51.380Z,9.457313
2023-04-15T01:20:51.366Z,9.457257
2023-04-15T01:21:51.382Z,9.457194
2023-04-15T01:22:51.376Z,9.457263
2023-04-15T01:23:51.335Z,9.457215
2023-04-15T01:24:51.335Z,9.457353
2023-04-15T01:25:51.312Z,9.457209
2023-04-15T01:26:51.338Z,9.457213
2023-04-15T01:27:51.312Z,9.457263
2023-04-15T01:28:51.300Z,9.457344
2023-04-15T01:29:51.277Z,9.457305
2023-04-15T01:30:51.270Z,9.457249
2023-04-15T01:31:51.389Z,9.457204
2023-04-15T01:32:51.275Z,9.457147
2023-04-15T01:33:51.241Z,9.457116
2023-04-15T01:34:51.234Z,9.457129
2023-04-15T01:35:51.237Z,9.457241
2023-04-15T01:36:51.283Z,9.457274
2023-04-15T01:37:51.228Z,9.457227
2023-04-15T01:38:51.191Z,9.457279
2023-04-15T01:39:51.173Z,9.457227
2023-04-15T01:40:51.175Z,9.457236
2023-04-15T01:41:51.184Z,9.457284
2023-04-15T01:42:51.154Z,9.457310
2023-04-15T01:43:51.152Z,9.457213
2023-04-15T01:44:51.121Z,9.457291
2023-04-15T01:45:52.125Z,9.457273
2023-04-15T01:46:51.118Z,9.457186
2023-04-15T01:47:51.170Z,9.457167
2023-04-15T01:48:51.098Z,9.457196
2023-04-15T01:49:51.081Z,9.457244
2023-04-15T01:50:51.068Z,9.457254
2023-04-15T01:51:52.068Z,9.457242
2023-04-15T01:52:51.086Z,9.457262
2023-04-15T01:53:51.049Z,9.457195
2023-04-15T01:54:51.035Z,9.457212
2023-04-15T01:55:51.026Z,9.457247
2023-04-15T01:56:51.016Z,9.457223
2023-04-15T01:57:51.054Z,9.457150
2023-04-15T01:58:51.005Z,9.457277
2023-04-15T01:59:50.989Z,9.457241
2023-04-15T02:00:51.020Z,9.457228
2023-04-15T02:01:50.985Z,9.457226
2023-04-15T02:02:51.033Z,9.457162
2023-04-15T02:03:51.086Z,9.457177
2023-04-15T02:04:50.947Z,9.457177
2023-04-15T02:05:50.915Z,9.457196
2023-04-15T02:06:50.913Z,9.457379
2023-04-15T02:07:50.924Z,9.457211
2023-04-15T02:08:50.892Z,9.457071
2023-04-15T02:09:50.898Z,9.457193
2023-04-15T02:10:50.878Z,9.457421
2023-04-15T02:11:50.870Z,9.457279
2023-04-15T02:12:50.875Z,9.457200
2023-04-15T02:13:50.848Z,9.457161
2023-04-15T02:14:50.847Z,9.457255
2023-04-15T02:15:50.826Z,9.457300
2023-04-15T02:16:50.910Z,9.457348
2023-04-15T02:17:50.974Z,9.457214
2023-04-15T02:18:50.797Z,9.457175
2023-04-15T02:19:50.785Z,9.457109
2023-04-15T02:20:50.773Z,9.457060
2023-04-15T02:21:50.778Z,9.457162
2023-04-15T02:22:50.777Z,9.457233
2023-04-15T02:23:53.566Z,9.457229
2023-04-15T02:24:50.739Z,9.457014
2023-04-15T02:25:53.871Z,9.457077
2023-04-15T02:26:50.710Z,9.457169
2023-04-15T02:27:51.724Z,9.457116
2023-04-15T02:28:50.689Z,9.457550
2023-04-15T02:29:50.684Z,9.457411
2023-04-15T02:30:50.679Z,9.457272
2023-04-15T02:31:50.758Z,9.457136
2023-04-15T02:32:50.741Z,9.457098
2023-04-15T02:33:50.641Z,9.457054
2023-04-15T02:34:50.631Z,9.457217
2023-04-15T02:35:50.615Z,9.457087
2023-04-15T02:36:50.620Z,9.457118
2023-04-15T02:37:50.627Z,9.457177
2023-04-15T02:38:50.596Z,9.457337
2023-04-15T02:39:50.576Z,9.457231
2023-04-15T02:40:50.575Z,9.457119
2023-04-15T02:41:50.565Z,9.456994
2023-04-15T02:42:50.566Z,9.456956
2023-04-15T02:43:50.539Z,9.456861
2023-04-15T02:44:50.555Z,9.457052
2023-04-15T02:45:50.565Z,9.457075
2023-04-15T02:46:50.505Z,9.457146
2023-04-15T02:47:50.542Z,9.457186
2023-04-15T02:48:50.513Z,9.457080
2023-04-15T02:49:50.474Z,9.457004
2023-04-15T02:50:50.478Z,9.457140
2023-04-15T02:51:50.456Z,9.457085
2023-04-15T02:52:50.473Z,9.457096
2023-04-15T02:53:50.449Z,9.457103
2023-04-15T02:54:50.425Z,9.457115
2023-04-15T02:55:50.418Z,9.457106
2023-04-15T02:56:50.409Z,9.457155
2023-04-15T02:57:50.420Z,9.457145
2023-04-15T02:58:50.390Z,9.457059
2023-04-15T02:59:50.377Z,9.457151
2023-04-15T03:00:50.368Z,9.457130
2023-04-15T03:01:50.417Z,9.457151
2023-04-15T03:02:50.514Z,9.457172
2023-04-15T03:03:50.455Z,9.457188
2023-04-15T03:04:50.350Z,9.457090
2023-04-15T03:05:50.308Z,9.457209
2023-04-15T03:06:50.304Z,9.457182
2023-04-15T03:07:50.321Z,9.457165
2023-04-15T03:08:50.289Z,9.457186
2023-04-15T03:09:50.268Z,9.457295
2023-04-15T03:10:50.265Z,9.457206
2023-04-15T03:11:50.252Z,9.457114
2023-04-15T03:12:50.264Z,9.457207
2023-04-15T03:13:50.272Z,9.457163
2023-04-15T03:14:50.249Z,9.457197
2023-04-15T03:15:50.254Z,9.457170
2023-04-15T03:16:50.201Z,9.457236
2023-04-15T03:17:50.228Z,9.457387
2023-04-15T03:18:50.177Z,9.457333
2023-04-15T03:19:50.162Z,9.457166
2023-04-15T03:20:50.167Z,9.457091
2023-04-15T03:21:50.142Z,9.457238
2023-04-15T03:22:50.221Z,9.457158
2023-04-15T03:23:50.131Z,9.457108
2023-04-15T03:24:50.108Z,9.456996
2023-04-15T03:25:50.108Z,9.457044
2023-04-15T03:26:50.109Z,9.457209
2023-04-15T03:27:50.119Z,9.457152
2023-04-15T03:28:50.078Z,9.457208
2023-04-15T03:29:50.048Z,9.457223
2023-04-15T03:30:50.081Z,9.457226
2023-04-15T03:31:50.043Z,9.457290
2023-04-15T03:32:50.081Z,9.457163
2023-04-15T03:33:50.030Z,9.457232
2023-04-15T03:34:50.010Z,9.457235
2023-04-15T03:35:49.993Z,9.457134
2023-04-15T03:36:49.991Z,9.456948
2023-04-15T03:37:50.008Z,9.457106
2023-04-15T03:38:49.958Z,9.457239
2023-04-15T03:39:49.957Z,9.457199
2023-04-15T03:40:49.942Z,9.457230
2023-04-15T03:41:49.936Z,9.457202
2023-04-15T03:42:49.934Z,9.457196
2023-04-15T03:43:49.903Z,9.457192
2023-04-15T03:44:49.890Z,9.457089
2023-04-15T03:45:49.985Z,9.457089
2023-04-15T03:46:50.037Z,9.457150
2023-04-15T03:47:49.932Z,9.457214
2023-04-15T03:48:49.855Z,9.457161
2023-04-15T03:49:49.828Z,9.457140
2023-04-15T03:50:50.825Z,9.457292
2023-04-15T03:51:49.820Z,9.457142
2023-04-15T03:52:51.197Z,9.457127
2023-04-15T03:53:50.789Z,9.457246
2023-04-15T03:54:50.785Z,9.457283
2023-04-15T03:55:49.816Z,9.457199
2023-04-15T03:56:49.758Z,9.457243
2023-04-15T03:57:49.777Z,9.457010
2023-04-15T03:58:49.756Z,9.457004
2023-04-15T03:59:49.736Z,9.457034
2023-04-15T04:00:49.711Z,9.457110
2023-04-15T04:01:49.783Z,9.457179
2023-04-15T04:02:49.893Z,9.457120
2023-04-15T04:03:49.995Z,9.457242
2023-04-15T04:04:49.714Z,9.457181
2023-04-15T04:05:49.671Z,9.457209
2023-04-15T04:06:49.634Z,9.457140
2023-04-15T04:07:49.702Z,9.457080
2023-04-15T04:08:49.620Z,9.457113
2023-04-15T04:09:49.616Z,9.457305
2023-04-15T04:10:49.595Z,9.457014
2023-04-15T04:11:49.583Z,9.457341
2023-04-15T04:12:49.606Z,9.457468
2023-04-15T04:13:49.558Z,9.457251
2023-04-15T04:14:49.556Z,9.457383
2023-04-15T04:15:49.581Z,9.457129
2023-04-15T04:16:49.595Z,9.457081
2023-04-15T04:17:49.591Z,9.456872
2023-04-15T04:18:49.513Z,9.456861
2023-04-15T04:19:49.507Z,9.456931
2023-04-15T04:20:49.487Z,9.456965
2023-04-15T04:21:49.468Z,9.457130
2023-04-15T04:22:49.515Z,9.457156
2023-04-15T04:23:49.459Z,9.457204
2023-04-15T04:24:49.451Z,9.457214
2023-04-15T04:25:49.429Z,9.457150
2023-04-15T04:26:49.432Z,9.457205
2023-04-15T04:27:49.438Z,9.457306
2023-04-15T04:28:49.399Z,9.457330
2023-04-15T04:29:49.386Z,9.457213
2023-04-15T04:30:49.368Z,9.457318
2023-04-15T04:31:49.392Z,9.457322
2023-04-15T04:32:49.409Z,9.457359
2023-04-15T04:33:49.334Z,9.457333
2023-04-15T04:34:49.325Z,9.457269
2023-04-15T04:35:49.324Z,9.457293
2023-04-15T04:36:49.308Z,9.457225
2023-04-15T04:37:49.332Z,9.457194
2023-04-15T04:38:49.281Z,9.457308
2023-04-15T04:39:49.279Z,9.457241
2023-04-15T04:40:49.256Z,9.457242
2023-04-15T04:41:49.247Z,9.457293
2023-04-15T04:42:49.285Z,9.457261
2023-04-15T04:43:49.225Z,9.457283
2023-04-15T04:44:49.229Z,9.457243
2023-04-15T04:45:49.206Z,9.457205
2023-04-15T04:46:49.187Z,9.457257
2023-04-15T04:47:49.233Z,9.457277
2023-04-15T04:48:49.159Z,9.457310
2023-04-15T04:49:49.162Z,9.457315
2023-04-15T04:50:49.146Z,9.457365
2023-04-15T04:51:49.155Z,9.457290
2023-04-15T04:52:49.171Z,9.457260
2023-04-15T04:53:49.125Z,9.457139
2023-04-15T04:54:49.093Z,9.457187
2023-04-15T04:55:49.083Z,9.457229
2023-04-15T04:56:49.074Z,9.457277
2023-04-15T04:57:49.081Z,9.457288
2023-04-15T04:58:49.053Z,9.457130
2023-04-15T04:59:49.046Z,9.457150
2023-04-15T05:00:49.067Z,9.457186
2023-04-15T05:01:49.039Z,9.457253
2023-04-15T05:02:49.111Z,9.457129
2023-04-15T05:03:49.050Z,9.457265
2023-04-15T05:04:48.984Z,9.457339
2023-04-15T05:05:48.974Z,9.457253
2023-04-15T05:06:48.990Z,9.457214
2023-04-15T05:07:48.971Z,9.457200
2023-04-15T05:08:48.945Z,9.457190
2023-04-15T05:09:48.930Z,9.457146
2023-04-15T05:10:48.918Z,9.457125
2023-04-15T05:11:48.917Z,9.457279
2023-04-15T05:12:48.940Z,9.457283
2023-04-15T05:13:48.886Z,9.457207
2023-04-15T05:14:48.879Z,9.457310
2023-04-15T05:15:48.921Z,9.457206
2023-04-15T05:16:48.863Z,9.457289
2023-04-15T05:17:48.905Z,9.457207
2023-04-15T05:18:48.835Z,9.457355
2023-04-15T05:19:48.823Z,9.457253
2023-04-15T05:20:48.812Z,9.457059
2023-04-15T05:21:48.806Z,9.457124
2023-04-15T05:22:48.838Z,9.457216
2023-04-15T05:23:48.794Z,9.457264
2023-04-15T05:24:48.778Z,9.457202
2023-04-15T05:25:48.764Z,9.457294
2023-04-15T05:26:48.762Z,9.457313
2023-04-15T05:27:48.758Z,9.457239
2023-04-15T05:28:48.734Z,9.457232
2023-04-15T05:29:48.729Z,9.457242
2023-04-15T05:30:48.811Z,9.457343
2023-04-15T05:31:48.711Z,9.457346
2023-04-15T05:32:48.728Z,9.457202
2023-04-15T05:33:48.682Z,9.457213
2023-04-15T05:34:48.711Z,9.457187
2023-04-15T05:35:48.668Z,9.457171
2023-04-15T05:36:48.658Z,9.457284
2023-04-15T05:37:48.699Z,9.457264
2023-04-15T05:38:48.632Z,9.457315
2023-04-15T05:39:48.618Z,9.457320
2023-04-15T05:40:48.615Z,9.457294
2023-04-15T05:41:48.595Z,9.457296
2023-04-15T05:42:48.610Z,9.457282
2023-04-15T05:43:48.591Z,9.457290
2023-04-15T05:44:48.618Z,9.457318
2023-04-15T05:45:49.579Z,9.457299
2023-04-15T05:46:48.548Z,9.457281
2023-04-15T05:47:48.728Z,9.457192
2023-04-15T05:48:48.523Z,9.457151
2023-04-15T05:49:48.515Z,9.457173
2023-04-15T05:50:48.534Z,9.457277
2023-04-15T05:51:48.506Z,9.457302
2023-04-15T05:52:48.529Z,9.457419
2023-04-15T05:53:48.473Z,9.457413
2023-04-15T05:54:48.475Z,9.457310
2023-04-15T05:55:48.458Z,9.457307
2023-04-15T05:56:48.453Z,9.457435
2023-04-15T05:57:48.437Z,9.457315
2023-04-15T05:58:48.458Z,9.457216
2023-04-15T05:59:48.427Z,9.457273
2023-04-15T06:00:48.416Z,9.457310
2023-04-15T06:01:48.430Z,9.457312
2023-04-15T06:02:48.514Z,9.457345
2023-04-15T06:03:48.495Z,9.457115
2023-04-15T06:04:48.406Z,9.457183
2023-04-15T06:05:48.358Z,9.457241
2023-04-15T06:06:48.368Z,9.457301
2023-04-15T06:07:48.816Z,9.457192
2023-04-15T06:08:49.345Z,9.457282
2023-04-15T06:09:48.333Z,9.457269
2023-04-15T06:24:04.530Z,9.457146
2023-04-15T06:25:04.515Z,9.457379
2023-04-15T06:26:04.514Z,9.457337
2023-04-15T06:27:04.508Z,9.457355
2023-04-15T06:28:04.511Z,9.457381
2023-04-15T06:29:05.487Z,9.457487
2023-04-15T06:30:04.469Z,9.457520
2023-04-15T06:31:04.474Z,9.457492
2023-04-15T06:32:04.470Z,9.457678
2023-04-15T06:33:04.494Z,9.457525
2023-04-15T06:34:04.429Z,9.457397
2023-04-15T06:35:04.436Z,9.457317
2023-04-15T06:36:04.408Z,9.457314
2023-04-15T06:37:06.192Z,9.457454
2023-04-15T06:38:04.402Z,9.457471
2023-04-15T06:39:04.520Z,9.457062
2023-04-15T06:40:04.377Z,9.457387
2023-04-15T06:41:04.400Z,9.457387
2023-04-15T06:42:04.368Z,9.457433
2023-04-15T06:43:04.358Z,9.457502
2023-04-15T06:44:04.336Z,9.457473
2023-04-15T06:45:04.319Z,9.457252
2023-04-15T06:46:04.360Z,9.457314
2023-04-15T06:47:04.307Z,9.457023
2023-04-15T06:48:04.307Z,9.457261
2023-04-15T06:49:04.275Z,9.457208
2023-04-15T06:50:04.263Z,9.457265
2023-04-15T06:51:04.255Z,9.457235
2023-04-15T06:52:04.267Z,9.457009
2023-04-15T06:53:04.261Z,9.457008
2023-04-15T06:54:04.225Z,9.456846
2023-04-15T06:55:04.222Z,9.456775
2023-04-15T06:56:04.204Z,9.457076
2023-04-15T06:57:04.212Z,9.457332
2023-04-15T06:58:04.197Z,9.457173
2023-04-15T06:59:04.185Z,9.457133
2023-04-15T07:00:04.163Z,9.457170
2023-04-15T07:01:04.226Z,9.457257
2023-04-15T07:02:04.202Z,9.457284
2023-04-15T07:03:04.208Z,9.457389
2023-04-15T07:04:04.132Z,9.457345
2023-04-15T07:05:04.111Z,9.457344
2023-04-15T07:06:04.104Z,9.457326
2023-04-15T07:07:04.087Z,9.457086
2023-04-15T07:08:04.136Z,9.457352
2023-04-15T07:09:04.321Z,9.457306
2023-04-15T07:10:04.053Z,9.457211
2023-04-15T07:11:04.064Z,9.457272
2023-04-15T07:12:04.051Z,9.457185
2023-04-15T07:13:04.050Z,9.457319
2023-04-15T07:14:04.017Z,9.457197
2023-04-15T07:15:04.007Z,9.457197
2023-04-15T07:16:03.999Z,9.456924
2023-04-15T07:17:04.004Z,9.457067
2023-04-15T07:18:04.115Z,9.457067
2023-04-15T07:19:04.135Z,9.457067
2023-04-15T07:20:03.951Z,9.457067
2023-04-15T07:21:03.952Z,9.457067
2023-04-15T07:22:03.938Z,9.457281
2023-04-15T07:23:03.927Z,9.457276
2023-04-15T07:24:03.943Z,9.457341
2023-04-15T07:25:03.909Z,9.457358
2023-04-15T07:26:03.890Z,9.457289
2023-04-15T07:27:03.882Z,9.457289
2023-04-15T07:28:03.907Z,9.457289
2023-04-15T07:29:04.252Z,9.457289
2023-04-15T07:30:03.855Z,9.457289
2023-04-15T07:31:03.896Z,9.457289
2023-04-15T07:32:03.858Z,9.457243
2023-04-15T07:33:03.922Z,9.457296
2023-04-15T07:34:03.823Z,9.457266
2023-04-15T07:35:03.809Z,9.457359
2023-04-15T07:36:03.796Z,9.457354
2023-04-15T07:37:03.784Z,9.457354
2023-04-15T07:38:03.796Z,9.457354
2023-04-15T07:39:04.035Z,9.457354
2023-04-15T07:40:03.764Z,9.457354
2023-04-15T07:41:03.743Z,9.457354
2023-04-15T07:42:03.732Z,9.457354
2023-04-15T07:43:03.768Z,9.457354
2023-04-15T07:44:03.718Z,9.457354
2023-04-15T07:45:03.722Z,9.457354
2023-04-15T07:46:03.725Z,9.457354
2023-04-15T07:47:03.695Z,9.457354
2023-04-15T07:48:03.753Z,9.457354
2023-04-15T07:49:03.989Z,9.457354
2023-04-15T07:50:03.673Z,9.457354
2023-04-15T07:51:03.655Z,9.457354
2023-04-15T07:52:03.658Z,9.457354
2023-04-15T07:53:03.653Z,9.457354
2023-04-15T07:54:03.618Z,9.457354
2023-04-15T07:55:03.605Z,9.457354
2023-04-15T07:56:03.600Z,9.457354
2023-04-15T07:57:03.585Z,9.457354
2023-04-15T07:58:03.592Z,9.457354
2023-04-15T07:59:03.843Z,9.457354
2023-04-15T08:00:03.559Z,9.457354
2023-04-15T08:01:03.549Z,9.457354
2023-04-15T08:02:03.727Z,9.457354
2023-04-15T08:03:03.704Z,9.457354
2023-04-15T08:04:03.784Z,9.457354
2023-04-15T08:05:03.508Z,9.457354
2023-04-15T08:06:03.510Z,9.456600
2023-04-15T08:07:03.509Z,9.456600
2023-04-15T08:08:03.496Z,9.456600
2023-04-15T08:09:03.834Z,9.456600
2023-04-15T08:10:03.451Z,9.456600
2023-04-15T08:11:03.452Z,9.456600
2023-04-15T08:12:03.428Z,9.456600
2023-04-15T08:13:03.431Z,9.456600
2023-04-15T08:14:03.408Z,9.456600
2023-04-15T08:15:03.406Z,9.456600
2023-04-15T08:16:03.444Z,9.456600
2023-04-15T08:17:03.379Z,9.456600
2023-04-15T08:18:03.421Z,9.456600
2023-04-15T08:19:03.582Z,9.456600
2023-04-15T08:20:03.347Z,9.456600
2023-04-15T08:21:03.335Z,9.456600
2023-04-15T08:22:03.354Z,9.456600
2023-04-15T08:23:03.356Z,9.456600
2023-04-15T08:24:03.308Z,9.456600
2023-04-15T08:25:03.311Z,9.456600
2023-04-15T08:26:03.278Z,9.456600
2023-04-15T08:27:03.278Z,9.456600
2023-04-15T08:28:03.293Z,9.456901
2023-04-15T08:29:03.469Z,9.456808
2023-04-15T08:30:07.274Z,9.456741
2023-04-15T08:31:04.275Z,9.456845
2023-04-15T08:32:03.228Z,9.456974
2023-04-15T08:33:03.250Z,9.457016
2023-04-15T08:34:03.213Z,9.457111
2023-04-15T08:35:03.202Z,9.457277
2023-04-15T08:36:03.181Z,9.457359
2023-04-15T08:37:03.184Z,9.457435
2023-04-15T08:38:03.196Z,9.457386
2023-04-15T08:39:03.383Z,9.457249
2023-04-15T08:40:03.161Z,9.457353
2023-04-15T08:41:03.143Z,9.457504
2023-04-15T08:42:03.128Z,9.457519
2023-04-15T08:43:03.148Z,9.457392
2023-04-15T08:44:03.102Z,9.457390
2023-04-15T08:45:03.167Z,9.457340
2023-04-15T08:46:03.100Z,9.457453
2023-04-15T08:47:03.310Z,9.457308
2023-04-15T08:48:03.118Z,9.457279
2023-04-15T08:49:03.248Z,9.457349
2023-04-15T08:50:03.050Z,9.457404
2023-04-15T08:51:03.073Z,9.457242
2023-04-15T08:52:03.037Z,9.457208
2023-04-15T08:53:03.035Z,9.457325
2023-04-15T08:54:03.016Z,9.457207
2023-04-15T08:55:03.013Z,9.457272
2023-04-15T08:56:02.990Z,9.457322
2023-04-15T08:57:02.990Z,9.457408
2023-04-15T08:58:02.989Z,9.457294
2023-04-15T08:59:03.146Z,9.457326
2023-04-15T09:00:03.953Z,9.457382
2023-04-15T09:01:04.059Z,9.457357
2023-04-15T09:02:02.946Z,9.457336
2023-04-15T09:03:02.991Z,9.457351
2023-04-15T09:04:03.023Z,9.457384
2023-04-15T09:05:02.895Z,9.457301
2023-04-15T09:06:02.885Z,9.457333
2023-04-15T09:07:02.874Z,9.457314
2023-04-15T09:08:02.896Z,9.457381
2023-04-15T09:09:03.148Z,9.457271
2023-04-15T09:10:03.838Z,9.457421
2023-04-15T09:11:02.834Z,9.457335
2023-04-15T09:12:02.830Z,9.457339
2023-04-15T09:13:02.842Z,9.457316
2023-04-15T09:14:02.802Z,9.457284
2023-04-15T09:15:02.793Z,9.457265
2023-04-15T09:16:02.777Z,9.457273
2023-04-15T09:17:02.806Z,9.457251
2023-04-15T09:18:02.915Z,9.457230
2023-04-15T09:19:02.836Z,9.457250
2023-04-15T09:20:02.748Z,9.457270
2023-04-15T09:21:02.732Z,9.457273
2023-04-15T09:22:02.761Z,9.457219
2023-04-15T09:23:02.714Z,9.457164
2023-04-15T09:24:02.972Z,9.457244
2023-04-15T09:25:02.711Z,9.457021
2023-04-15T09:26:02.692Z,9.457137
2023-04-15T09:27:02.700Z,9.457188
2023-04-15T09:28:02.663Z,9.457142
2023-04-15T09:29:02.673Z,9.457179
2023-04-15T09:30:02.647Z,9.457201
2023-04-15T09:31:02.711Z,9.457183
2023-04-15T09:32:02.648Z,9.457240
2023-04-15T09:33:02.668Z,9.457261
2023-04-15T09:34:02.818Z,9.457251
2023-04-15T09:35:02.625Z,9.457229
2023-04-15T09:36:02.583Z,9.457236
2023-04-15T09:37:03.173Z,9.457182
2023-04-15T09:38:02.586Z,9.457206
2023-04-15T09:39:02.559Z,9.457196
2023-04-15T09:40:02.544Z,9.457141
2023-04-15T09:41:02.546Z,9.457199
2023-04-15T09:42:02.527Z,9.457194
2023-04-15T09:43:02.532Z,9.457202
2023-04-15T09:44:02.596Z,9.457131
2023-04-15T09:45:02.495Z,9.457145
2023-04-15T09:46:02.499Z,9.457130
2023-04-15T09:47:02.494Z,9.457099
2023-04-15T09:48:02.514Z,9.457046
2023-04-15T09:49:02.495Z,9.457042
2023-04-15T09:50:02.533Z,9.457159
2023-04-15T09:51:02.435Z,9.457262
2023-04-15T09:52:05.802Z,9.457241
2023-04-15T09:53:03.444Z,9.457152
2023-04-15T09:54:02.627Z,9.457135
2023-04-15T09:55:02.396Z,9.457253
2023-04-15T09:56:02.403Z,9.457122
2023-04-15T09:57:02.393Z,9.457133
2023-04-15T09:58:02.369Z,9.457258
2023-04-15T09:59:02.359Z,9.457206
2023-04-15T10:00:02.352Z,9.457010
2023-04-15T10:01:02.372Z,9.457104
2023-04-15T10:02:02.387Z,9.457253
2023-04-15T10:03:02.442Z,9.457284
2023-04-15T10:04:02.616Z,9.457174
2023-04-15T10:05:02.386Z,9.457081
2023-04-15T10:06:02.295Z,9.457264
2023-04-15T10:07:02.285Z,9.457286
2023-04-15T10:08:02.313Z,9.457267
2023-04-15T10:09:02.272Z,9.457195
2023-04-15T10:10:02.258Z,9.457192
2023-04-15T10:11:02.334Z,9.457044
2023-04-15T10:12:02.245Z,9.457149
2023-04-15T10:13:02.262Z,9.457116
2023-04-15T10:14:02.388Z,9.457145
2023-04-15T10:15:02.197Z,9.457039
2023-04-15T10:16:03.240Z,9.457112
2023-04-15T10:17:02.194Z,9.457196
2023-04-15T10:18:02.276Z,9.457246
2023-04-15T10:19:02.183Z,9.457253
2023-04-15T10:20:02.182Z,9.457263
2023-04-15T10:21:02.234Z,9.457283
2023-04-15T10:22:02.145Z,9.457349
2023-04-15T10:23:02.145Z,9.457263
2023-04-15T10:24:02.418Z,9.457242
2023-04-15T10:25:02.134Z,9.457236
2023-04-15T10:26:02.114Z,9.457196
2023-04-15T10:27:02.078Z,9.457235
2023-04-15T10:28:02.101Z,9.457243
2023-04-15T10:29:02.054Z,9.457265
2023-04-15T10:30:02.059Z,9.457312
2023-04-15T10:31:02.073Z,9.457247
2023-04-15T10:32:02.123Z,9.457281
2023-04-15T10:33:02.192Z,9.457239
2023-04-15T10:34:02.311Z,9.457238
2023-04-15T10:35:02.036Z,9.457227
2023-04-15T10:36:02.009Z,9.457179
2023-04-15T10:37:02.000Z,9.457104
2023-04-15T10:38:01.984Z,9.457224
2023-04-15T10:39:01.988Z,9.457247
2023-04-15T10:40:02.087Z,9.457252
2023-04-15T10:41:01.953Z,9.457258
2023-04-15T10:42:01.954Z,9.457277
2023-04-15T10:43:01.950Z,9.457154
2023-04-15T10:44:02.157Z,9.457234
2023-04-15T10:45:01.969Z,9.457194
2023-04-15T10:46:01.926Z,9.457222
2023-04-15T10:47:01.889Z,9.457202
2023-04-15T10:48:03.451Z,9.457245
2023-04-15T10:49:02.865Z,9.457253
2023-04-15T10:50:01.858Z,9.457230
2023-04-15T10:51:01.841Z,9.457214
2023-04-15T10:52:01.837Z,9.457168
2023-04-15T10:53:01.860Z,9.457191
2023-04-15T10:54:01.853Z,9.457141
2023-04-15T10:55:01.888Z,9.457169
2023-04-15T10:56:01.804Z,9.457271
2023-04-15T10:57:01.809Z,9.457141
2023-04-15T10:58:01.771Z,9.457313
2023-04-15T10:59:01.760Z,9.457340
2023-04-15T11:00:01.785Z,9.457337
2023-04-15T11:01:01.746Z,9.457175
2023-04-15T11:02:01.856Z,9.457193
2023-04-15T11:03:01.892Z,9.457292
2023-04-15T11:04:02.217Z,9.457185
2023-04-15T11:05:01.704Z,9.457260
2023-04-15T11:06:01.721Z,9.457120
2023-04-15T11:07:01.682Z,9.457212
2023-04-15T11:08:01.702Z,9.457153
2023-04-15T11:09:01.683Z,9.457277
2023-04-15T11:10:01.686Z,9.457258
2023-04-15T11:11:01.648Z,9.457239
2023-04-15T11:12:01.705Z,9.457237
2023-04-15T11:13:01.645Z,9.457303
2023-04-15T11:14:02.792Z,9.457196
2023-04-15T11:15:01.659Z,9.457215
2023-04-15T11:16:02.001Z,9.457227
2023-04-15T11:17:01.592Z,9.457335
2023-04-15T11:18:01.681Z,9.457351
2023-04-15T11:19:01.597Z,9.457066
2023-04-15T11:20:01.550Z,9.457108
2023-04-15T11:21:01.561Z,9.457273
2023-04-15T11:22:01.538Z,9.457209
2023-04-15T11:23:14.334Z,9.457242
2023-04-15T11:24:03.933Z,9.457303
2023-04-15T11:25:01.489Z,9.457170
2023-04-15T11:26:01.504Z,9.457189
2023-04-15T11:27:01.487Z,9.457186
2023-04-15T11:28:01.512Z,9.457147
2023-04-15T11:29:01.606Z,9.457088
2023-04-15T11:30:01.490Z,9.457153
2023-04-15T11:31:01.438Z,9.457127
2023-04-15T11:32:01.461Z,9.457135
2023-04-15T11:33:01.507Z,9.457100
2023-04-15T11:34:01.432Z,9.457108
2023-04-15T11:35:01.469Z,9.457211
2023-04-15T11:36:01.439Z,9.457117
2023-04-15T11:37:01.394Z,9.457117
2023-04-15T11:38:01.392Z,9.457138
2023-04-15T11:39:01.374Z,9.457156
2023-04-15T11:40:01.364Z,9.457061
2023-04-15T11:41:01.350Z,9.457078
2023-04-15T11:42:01.341Z,9.457155
2023-04-15T11:43:01.393Z,9.457105
2023-04-15T11:44:01.526Z,9.457193
2023-04-15T11:45:01.299Z,9.457264
2023-04-15T11:46:01.398Z,9.457355
2023-04-15T11:47:01.276Z,9.457443
2023-04-15T11:48:01.340Z,9.457176
2023-04-15T11:49:01.316Z,9.457040
2023-04-15T11:50:01.254Z,9.456973
2023-04-15T11:51:01.255Z,9.457062
2023-04-15T11:52:01.233Z,9.457281
2023-04-15T11:53:01.243Z,9.457288
2023-04-15T11:54:01.403Z,9.457200
2023-04-15T11:55:01.197Z,9.457088
2023-04-15T11:56:01.229Z,9.457072
2023-04-15T11:57:01.171Z,9.457201
2023-04-15T11:58:01.178Z,9.457231